createdAt,value
2022-09-06T00:07:51.696Z,15.19
2022-09-06T00:09:57.078Z,14.98
2022-09-06T00:15:16.306Z,14.84
2022-09-06T00:20:35.981Z,14.83
2022-09-06T00:29:09.041Z,14.87
2022-09-06T00:31:14.521Z,15.04
2022-09-06T00:41:53.564Z,15.14
2022-09-06T00:47:12.965Z,15.04
2022-09-06T00:52:31.958Z,14.83
2022-09-06T00:57:50.735Z,14.64
2022-09-06T01:03:09.674Z,14.47
2022-09-06T01:08:38.602Z,14.34
2022-09-06T01:13:48.040Z,14.3
2022-09-06T01:19:18.216Z,14.18
2022-09-06T01:24:36.982Z,14.1
2022-09-06T01:29:44.881Z,13.92
2022-09-06T01:35:03.751Z,13.79
2022-09-06T01:43:47.798Z,13.68
2022-09-06T01:48:05.352Z,13.67
2022-09-06T01:52:09.844Z,13.68
2022-09-06T01:56:20.604Z,13.71
2022-09-06T02:01:39.637Z,13.72
2022-09-06T02:06:58.936Z,13.75
2022-09-06T02:12:18.619Z,13.86
2022-09-06T02:17:49.379Z,13.88
2022-09-06T02:26:22.408Z,13.91
2022-09-06T02:30:39.013Z,13.85
2022-09-06T02:34:43.470Z,13.85
2022-09-06T02:44:13.684Z,13.88
2022-09-06T02:49:33.024Z,13.86
2022-09-06T02:54:51.870Z,13.86
2022-09-06T03:00:21.276Z,13.86
2022-09-06T03:05:30.718Z,13.89
2022-09-06T03:10:49.551Z,13.99
2022-09-06T03:16:08.647Z,14.08
2022-09-06T03:21:28.010Z,13.97
2022-09-06T03:30:01.109Z,14.68
2022-09-06T03:32:06.760Z,14.91
2022-09-06T03:42:44.843Z,15.34
2022-09-06T03:48:04.386Z,15.15
2022-09-06T03:53:23.901Z,14.94
2022-09-06T03:58:54.259Z,14.77
2022-09-06T04:04:02.047Z,14.77
2022-09-06T04:09:20.908Z,14.7
2022-09-06T04:17:53.998Z,14.7
2022-09-06T04:19:59.271Z,14.67
2022-09-06T04:30:47.878Z,14.4
2022-09-06T04:35:56.170Z,14.66
2022-09-06T04:41:15.625Z,14.64
2022-09-06T04:46:44.725Z,14.77
2022-09-06T04:51:54.409Z,14.63
2022-09-06T04:57:13.383Z,14.64
2022-09-06T05:02:32.704Z,15.22
2022-09-06T05:11:05.736Z,15.77
2022-09-06T05:15:22.229Z,15.49
2022-09-06T05:18:30.915Z,15.09
2022-09-06T05:24:01.193Z,14.87
2022-09-06T05:29:09.197Z,14.77
2022-09-06T05:34:39.934Z,14.77
2022-09-06T05:43:01.975Z,14.74
2022-09-06T05:45:07.102Z,14.87
2022-09-06T05:50:38.653Z,14.91
2022-09-06T05:58:59.690Z,14.97
2022-09-06T06:01:05.196Z,15.62
2022-09-06T06:11:42.900Z,16.95
2022-09-06T06:17:02.108Z,17.45
2022-09-06T06:25:35.069Z,17.82
2022-09-06T06:27:39.964Z,18.12
2022-09-06T06:32:59.280Z,18.4
2022-09-06T06:38:18.351Z,18.6
2022-09-06T06:43:49.421Z,18.7
2022-09-06T06:52:22.436Z,18.7
2022-09-06T07:00:43.623Z,18.84
2022-09-06T07:04:54.066Z,19.07
2022-09-06T07:15:32.622Z,19.41
2022-09-06T07:26:10.823Z,19.86
2022-09-06T07:34:43.890Z,20.44
2022-09-06T07:36:49.184Z,20.86
2022-09-06T07:47:57.371Z,21.39
2022-09-06T07:53:12.899Z,21.71
2022-09-06T07:58:05.735Z,21.94
2022-09-06T08:10:55.316Z,23
2022-09-06T08:19:22.581Z,24.92
2022-09-06T08:24:41.935Z,25.82
2022-09-06T08:30:01.000Z,26.21
2022-09-06T08:35:20.012Z,26.59
2022-09-06T08:40:39.428Z,26.91
2022-09-06T08:46:09.692Z,27.04
2022-09-06T08:51:18.130Z,27.22
2022-09-06T08:56:37.070Z,27.85
2022-09-06T09:01:56.274Z,27.88
2022-09-06T09:07:15.744Z,27.62
2022-09-06T09:12:34.425Z,27.82
2022-09-06T09:17:53.627Z,27.6
2022-09-06T09:26:26.686Z,27.26
2022-09-06T09:28:32.008Z,27.2
2022-09-06T09:39:10.447Z,27.14
2022-09-06T09:44:29.108Z,27.44
2022-09-06T09:49:47.964Z,27.72
2022-09-06T09:58:21.045Z,27.78
2022-09-06T10:00:26.696Z,27.97
2022-09-06T10:05:45.628Z,28.05
2022-09-06T10:11:05.152Z,27.97
2022-09-06T10:16:24.008Z,28.52
2022-09-06T10:21:42.951Z,28.73
2022-09-06T10:30:16.014Z,28.43
2022-09-06T10:43:00.521Z,28.71
2022-09-06T10:48:19.799Z,28.84
2022-09-06T10:56:52.874Z,29.51
2022-09-06T11:05:38.004Z,29.24
2022-09-06T11:09:42.452Z,29.25
2022-09-06T11:18:15.521Z,29.57
2022-09-06T11:30:54.050Z,29.62
2022-09-06T11:36:13.274Z,29.99
2022-09-06T11:41:32.391Z,30.12
2022-09-06T11:46:51.310Z,30.3
2022-09-06T11:52:10.731Z,30.31
2022-09-06T11:57:29.640Z,30.09
2022-09-06T12:06:02.687Z,30.09
2022-09-06T12:08:07.862Z,30.41
2022-09-06T12:13:26.665Z,30.36
2022-09-06T12:18:45.897Z,30.17
2022-09-06T12:24:04.644Z,30.44
2022-09-06T12:29:23.865Z,30.19
2022-09-06T12:37:56.988Z,29.8
2022-09-06T12:40:01.982Z,29.99
2022-09-06T12:45:23.963Z,30.12
2022-09-06T12:50:44.797Z,30.4
2022-09-06T12:55:58.583Z,30.53
2022-09-06T13:04:31.655Z,30.57
2022-09-06T13:06:36.532Z,30.99
2022-09-06T13:11:55.212Z,31.35
2022-09-06T13:17:14.287Z,31.15
2022-09-06T13:25:47.352Z,30.84
2022-09-06T13:26:15.206Z,30.71
2022-09-06T13:31:34.543Z,31.09
2022-09-06T13:36:53.253Z,31.3
2022-09-06T13:42:12.646Z,31.39
2022-09-06T13:47:31.390Z,31.59
2022-09-06T13:52:50.929Z,31.11
2022-09-06T13:58:09.645Z,31.18
2022-09-06T14:03:29.026Z,31.66
2022-09-06T14:09:05.590Z,31.81
2022-09-06T14:17:21.374Z,31.28
2022-09-06T14:19:27.135Z,30.82
2022-09-06T14:30:05.720Z,30.84
2022-09-06T14:35:24.723Z,30.94
2022-09-06T14:43:57.780Z,31.33
2022-09-06T14:46:03.114Z,31
2022-09-06T14:51:22.275Z,29.79
2022-09-06T14:56:41.683Z,29.14
2022-09-06T15:02:01.353Z,29.24
2022-09-06T15:07:20.107Z,29.03
2022-09-06T15:12:39.431Z,28.09
2022-09-06T15:17:58.901Z,27
2022-09-06T15:23:25.636Z,26.71
2022-09-06T15:28:36.968Z,26.59
2022-09-06T15:33:55.745Z,26.2
2022-09-06T15:39:25.694Z,25.82
2022-09-06T15:44:33.353Z,25.63
2022-09-06T15:53:06.390Z,25.58
2022-09-06T15:55:12.121Z,24.39
2022-09-06T16:00:31.528Z,22.49
2022-09-06T16:11:09.827Z,20.64
2022-09-06T16:16:29.454Z,20.04
2022-09-06T16:25:02.464Z,19.85
2022-09-06T16:29:19.001Z,19.65
2022-09-06T16:37:58.205Z,19.79
2022-09-06T16:43:04.916Z,19.95
2022-09-06T16:48:35.473Z,19.89
2022-09-06T16:53:44.045Z,19.92
2022-09-06T16:59:03.074Z,19.9
2022-09-06T17:07:36.129Z,19.66
2022-09-06T17:09:41.942Z,19.54
2022-09-06T17:15:01.316Z,19.44
2022-09-06T17:23:34.369Z,19.37
2022-09-06T17:25:38.701Z,19.08
2022-09-06T17:30:58.290Z,19.76
2022-09-06T17:37:32.427Z,19.36
2022-09-06T17:41:36.599Z,18.9
2022-09-06T17:47:12.353Z,18.77
2022-09-06T17:52:14.382Z,18.74
2022-09-06T17:57:33.711Z,18.81
2022-09-06T18:02:53.444Z,18.94
2022-09-06T18:08:12.094Z,18.76
2022-09-06T18:14:36.383Z,18.4
2022-09-06T18:18:51.480Z,18.08
2022-09-06T18:24:10.717Z,17.87
2022-09-06T18:31:09.317Z,17.73
2022-09-06T18:34:49.122Z,18.12
2022-09-06T18:41:47.706Z,18.52
2022-09-06T18:45:26.809Z,18.04
2022-09-06T18:50:59.285Z,17.74
2022-09-06T18:57:20.041Z,17.43
2022-09-06T19:01:25.168Z,17.29
2022-09-06T19:06:43.179Z,17.21
2022-09-06T19:13:07.477Z,17.19
2022-09-06T19:17:22.729Z,17.07
2022-09-06T19:23:50.604Z,16.86
2022-09-06T19:28:02.024Z,16.76
2022-09-06T19:33:21.350Z,16.69
2022-09-06T19:39:01.797Z,16.57
2022-09-06T19:43:59.398Z,16.46
2022-09-06T19:49:19.621Z,16.52
2022-09-06T19:55:53.823Z,16.54
2022-09-06T20:05:29.009Z,16.59
2022-09-06T20:10:37.513Z,16.68
2022-09-06T20:17:36.089Z,16.58
2022-09-06T20:21:16.979Z,16.51
2022-09-06T20:26:35.866Z,16.35
2022-09-06T20:35:08.925Z,16.14
2022-09-06T20:37:14.189Z,16.11
2022-09-06T20:42:33.760Z,16.08
2022-09-06T20:47:53.360Z,15.97
2022-09-06T20:53:12.467Z,16.12
2022-09-06T20:58:31.115Z,16.27
2022-09-06T21:03:50.438Z,16.18
2022-09-06T21:09:08.792Z,16.2
2022-09-06T21:14:35.691Z,16.11
2022-09-06T21:19:47.180Z,16.01
2022-09-06T21:25:06.887Z,16.04
2022-09-06T21:30:35.176Z,16.07
2022-09-06T21:35:44.637Z,16.1
2022-09-06T21:42:18.822Z,15.85
2022-09-06T21:46:23.137Z,15.62
2022-09-06T21:53:21.659Z,15.43
2022-09-06T21:57:38.158Z,15.73
2022-09-06T22:02:28.437Z,16.34
2022-09-06T22:07:48.947Z,16.08
2022-09-06T22:12:59.066Z,15.7
2022-09-06T22:19:33.467Z,15.43
2022-09-06T22:23:37.476Z,15.19
2022-09-06T22:28:56.897Z,15.01
2022-09-06T22:34:15.681Z,14.88
2022-09-06T22:39:34.431Z,14.84
2022-09-06T22:44:54.237Z,14.88
2022-09-06T22:50:13.363Z,14.87
2022-09-06T22:55:32.270Z,14.81
2022-09-06T23:02:06.404Z,14.77
2022-09-06T23:06:10.466Z,14.68
2022-09-06T23:11:29.180Z,14.66
2022-09-06T23:16:48.814Z,14.64
2022-09-06T23:22:08.100Z,14.6
2022-09-06T23:27:26.960Z,14.68
2022-09-06T23:32:46.014Z,14.7
2022-09-06T23:38:04.521Z,14.51
2022-09-06T23:43:24.127Z,14.59
2022-09-06T23:48:43.331Z,14.63
2022-09-06T23:54:02.738Z,14.61
2022-09-06T23:59:21.132Z,14.53
